createdAt,value
2017-09-27T03:37:42.746Z,13.1
2017-09-27T03:38:03.004Z,13.1
2017-09-27T03:38:23.270Z,13.1
2017-09-27T03:38:43.486Z,13.1
2017-09-27T03:39:03.676Z,13.1
2017-09-27T03:39:23.852Z,13
2017-09-27T03:39:44.033Z,13
2017-09-27T03:40:04.218Z,13
2017-09-27T03:40:24.403Z,13.1
2017-09-27T03:40:44.582Z,13.1
2017-09-27T03:41:04.763Z,13
2017-09-27T03:41:24.936Z,13
2017-09-27T03:41:45.215Z,13
2017-09-27T03:42:05.433Z,13
2017-09-27T03:42:25.743Z,13
2017-09-27T03:42:45.968Z,13
2017-09-27T03:43:06.169Z,12.9
2017-09-27T03:43:26.433Z,13
2017-09-27T03:43:46.623Z,13
2017-09-27T03:44:06.886Z,12.9
2017-09-27T03:44:27.133Z,13
2017-09-27T03:44:47.308Z,13
2017-09-27T03:45:07.580Z,13
2017-09-27T03:45:27.807Z,13
2017-09-27T03:45:47.994Z,12.9
2017-09-27T03:46:08.217Z,13
2017-09-27T03:46:28.394Z,13
2017-09-27T03:46:48.667Z,13
2017-09-27T03:47:08.844Z,13
2017-09-27T03:47:29.151Z,13
2017-09-27T03:47:49.391Z,12.9
2017-09-27T03:48:09.607Z,12.9
2017-09-27T03:48:29.784Z,12.8
2017-09-27T03:48:50.007Z,12.9
2017-09-27T03:49:10.190Z,12.8
2017-09-27T03:49:30.385Z,12.8
2017-09-27T03:49:50.567Z,12.9
2017-09-27T03:50:10.748Z,12.9
2017-09-27T03:50:30.934Z,12.8
2017-09-27T03:50:51.097Z,12.9
2017-09-27T03:51:11.271Z,12.8
2017-09-27T03:51:31.526Z,12.9
2017-09-27T03:51:51.701Z,12.9
2017-09-27T03:52:11.886Z,12.9
2017-09-27T03:52:32.085Z,12.9
2017-09-27T03:52:52.265Z,12.9
2017-09-27T03:53:12.511Z,12.8
2017-09-27T03:53:32.651Z,12.8
2017-09-27T03:53:52.887Z,12.8
2017-09-27T03:54:13.056Z,12.8
2017-09-27T03:54:33.250Z,12.9
2017-09-27T03:54:53.423Z,12.9
2017-09-27T03:55:13.598Z,12.9
2017-09-27T03:55:33.839Z,12.8
2017-09-27T03:55:54.048Z,12.8
2017-09-27T03:56:14.225Z,12.9
2017-09-27T03:56:34.391Z,12.8
2017-09-27T03:56:54.559Z,12.7
2017-09-27T03:57:14.831Z,12.8
2017-09-27T03:57:35.047Z,12.7
2017-09-27T03:57:55.233Z,12.7
2017-09-27T03:58:15.460Z,12.8
2017-09-27T03:58:35.635Z,12.7
2017-09-27T03:58:55.819Z,12.7
2017-09-27T03:59:16.027Z,12.8
2017-09-27T03:59:36.245Z,12.7
2017-09-27T03:59:56.460Z,12.7
2017-09-27T04:00:16.639Z,12.7
2017-09-27T04:00:36.816Z,12.8
2017-09-27T04:00:56.993Z,12.8
2017-09-27T04:01:17.204Z,12.7
2017-09-27T04:01:37.378Z,12.7
2017-09-27T04:01:57.630Z,12.7
2017-09-27T04:02:17.838Z,12.7
2017-09-27T04:02:38.014Z,12.6
2017-09-27T04:02:58.182Z,12.7
2017-09-27T04:03:18.353Z,12.7
2017-09-27T04:03:38.546Z,12.7
2017-09-27T04:03:58.738Z,12.6
2017-09-27T04:04:18.964Z,12.6
2017-09-27T04:04:39.146Z,12.5
2017-09-27T04:04:59.317Z,12.6
2017-09-27T04:05:19.521Z,12.6
2017-09-27T04:05:39.735Z,12.5
2017-09-27T04:05:59.954Z,12.5
2017-09-27T04:06:20.178Z,12.5
2017-09-27T04:06:40.360Z,12.6
2017-09-27T04:07:00.535Z,12.6
2017-09-27T04:07:20.770Z,12.6
2017-09-27T04:07:40.956Z,12.6
2017-09-27T04:08:01.186Z,12.6
2017-09-27T04:08:21.353Z,12.6
2017-09-27T04:08:41.544Z,12.6
2017-09-27T04:09:01.710Z,12.6
2017-09-27T04:09:21.891Z,12.7
2017-09-27T04:09:42.071Z,12.6
2017-09-27T04:10:02.245Z,12.6
2017-09-27T04:10:22.425Z,12.6
2017-09-27T04:10:42.642Z,12.6
2017-09-27T04:11:02.821Z,12.6
2017-09-27T04:11:23.058Z,12.6
2017-09-27T04:11:43.244Z,12.6
2017-09-27T04:12:03.466Z,12.6
2017-09-27T04:12:23.640Z,12.6
2017-09-27T04:12:43.862Z,12.6
2017-09-27T04:13:04.076Z,12.6
2017-09-27T04:13:24.319Z,12.6
2017-09-27T04:13:44.494Z,12.6
2017-09-27T04:14:04.718Z,12.5
2017-09-27T04:14:24.903Z,12.6
2017-09-27T04:14:45.142Z,12.5
2017-09-27T04:15:05.369Z,12.6
2017-09-27T04:15:25.604Z,12.7
2017-09-27T04:15:45.772Z,12.6
2017-09-27T04:16:05.949Z,12.5
2017-09-27T04:16:26.125Z,12.5
2017-09-27T04:16:46.307Z,12.6
2017-09-27T04:17:06.486Z,12.6
2017-09-27T04:17:26.673Z,12.6
2017-09-27T04:17:46.840Z,12.5
2017-09-27T04:18:07.067Z,12.6
2017-09-27T04:18:27.289Z,12.6
2017-09-27T04:18:47.466Z,12.6
2017-09-27T04:19:07.766Z,12.5
2017-09-27T04:19:27.988Z,12.5
2017-09-27T04:19:48.201Z,12.6
2017-09-27T04:20:08.428Z,12.5
2017-09-27T04:20:28.613Z,12.5
2017-09-27T04:20:48.836Z,12.5
2017-09-27T04:21:09.014Z,12.6
2017-09-27T04:21:29.199Z,12.5
2017-09-27T04:21:49.367Z,12.5
2017-09-27T04:22:09.590Z,12.5
2017-09-27T04:22:29.772Z,12.5
2017-09-27T04:22:49.945Z,12.5
2017-09-27T04:23:10.168Z,12.5
2017-09-27T04:23:30.390Z,12.5
2017-09-27T04:23:50.580Z,12.5
2017-09-27T04:24:10.777Z,12.5
2017-09-27T04:24:30.955Z,12.5
2017-09-27T04:24:51.176Z,12.5
2017-09-27T04:25:11.356Z,12.5
2017-09-27T04:25:31.581Z,12.5
2017-09-27T04:25:51.792Z,12.5
2017-09-27T04:26:11.968Z,12.5
2017-09-27T04:26:32.178Z,12.5
2017-09-27T04:26:52.369Z,12.4
2017-09-27T04:27:12.541Z,12.4
2017-09-27T04:27:32.713Z,12.5
2017-09-27T04:27:52.891Z,12.4
2017-09-27T04:28:13.060Z,12.5
2017-09-27T04:28:33.231Z,12.4
2017-09-27T04:28:53.436Z,12.5
2017-09-27T04:29:13.672Z,12.5
2017-09-27T04:29:33.949Z,12.4
2017-09-27T04:29:54.123Z,12.4
2017-09-27T04:30:14.339Z,12.4
2017-09-27T04:30:34.513Z,12.4
2017-09-27T04:30:54.734Z,12.4
2017-09-27T04:31:14.954Z,12.3
2017-09-27T04:31:35.127Z,12.4
2017-09-27T04:31:55.305Z,12.4
2017-09-27T04:32:15.479Z,12.4
2017-09-27T04:32:35.679Z,12.4
2017-09-27T04:32:55.860Z,12.5
2017-09-27T04:33:16.053Z,12.4
2017-09-27T04:33:36.229Z,12.4
2017-09-27T04:33:56.420Z,12.4
2017-09-27T04:34:16.610Z,12.4
2017-09-27T04:34:36.881Z,12.4
2017-09-27T04:34:57.051Z,12.3
2017-09-27T04:35:17.219Z,12.4
2017-09-27T04:35:37.410Z,12.3
2017-09-27T04:35:57.625Z,12.3
2017-09-27T04:36:17.794Z,12.3
2017-09-27T04:36:38.022Z,12.4
2017-09-27T04:36:58.196Z,12.4
2017-09-27T04:37:18.374Z,12.3
2017-09-27T04:37:38.546Z,12.3
2017-09-27T04:37:58.721Z,12.3
2017-09-27T04:38:18.895Z,12.3
2017-09-27T04:38:39.082Z,12.4
2017-09-27T04:38:59.270Z,12.3
2017-09-27T04:39:19.454Z,12.3
2017-09-27T04:39:39.680Z,12.3
2017-09-27T04:39:59.970Z,12.3
2017-09-27T04:40:20.138Z,12.4
2017-09-27T04:40:40.319Z,12.3
2017-09-27T04:41:00.525Z,12.2
2017-09-27T04:41:20.754Z,12.3
2017-09-27T04:41:40.927Z,12.3
2017-09-27T04:42:01.111Z,12.3
2017-09-27T04:42:21.322Z,12.2
2017-09-27T04:42:41.504Z,12.3
2017-09-27T04:43:01.747Z,12.3
2017-09-27T04:43:21.946Z,12.3
2017-09-27T04:43:42.139Z,12.3
2017-09-27T04:44:02.346Z,12.3
2017-09-27T04:44:22.532Z,12.3
2017-09-27T04:44:42.803Z,12.3
2017-09-27T04:45:03.036Z,12.3
2017-09-27T04:45:23.217Z,12.3
2017-09-27T04:45:43.396Z,12.3
2017-09-27T04:46:03.577Z,12.3
2017-09-27T04:46:23.808Z,12.3
2017-09-27T04:46:43.991Z,12.3
2017-09-27T04:47:04.219Z,12.3
2017-09-27T04:47:24.397Z,12.3
2017-09-27T04:47:44.667Z,12.3
2017-09-27T04:48:04.902Z,12.3
2017-09-27T04:48:25.109Z,12.2
2017-09-27T04:48:45.286Z,12.3
2017-09-27T04:49:05.466Z,12.3
2017-09-27T04:49:25.645Z,12.3
2017-09-27T04:49:45.829Z,12.3
2017-09-27T04:50:06.050Z,12.3
2017-09-27T04:50:26.245Z,12.3
2017-09-27T04:50:46.444Z,12.2
2017-09-27T04:51:06.635Z,12.3
2017-09-27T04:51:26.812Z,12.3
2017-09-27T04:51:47.037Z,12.3
2017-09-27T04:52:07.220Z,12.3
2017-09-27T04:52:27.440Z,12.3
2017-09-27T04:52:47.656Z,12.3
2017-09-27T04:53:07.926Z,12.3
2017-09-27T04:53:28.109Z,12.3
2017-09-27T04:53:48.299Z,12.4
2017-09-27T04:54:08.517Z,12.3
2017-09-27T04:54:28.709Z,12.4
2017-09-27T04:54:48.887Z,12.4
2017-09-27T04:55:09.068Z,12.3
2017-09-27T04:55:29.258Z,12.3
2017-09-27T04:55:49.495Z,12.3
2017-09-27T04:56:09.727Z,12.4
2017-09-27T04:56:29.915Z,12.3
2017-09-27T04:56:50.097Z,12.4
2017-09-27T04:57:10.325Z,12.4
2017-09-27T04:57:30.498Z,12.4
2017-09-27T04:57:50.671Z,12.4
2017-09-27T04:58:10.853Z,12.4
2017-09-27T04:58:31.096Z,12.3
2017-09-27T04:58:51.320Z,12.4
2017-09-27T04:59:11.495Z,12.4
2017-09-27T04:59:31.729Z,12.3
2017-09-27T04:59:51.908Z,12.4
2017-09-27T05:00:12.082Z,12.4
2017-09-27T05:00:32.262Z,12.4
2017-09-27T05:00:52.496Z,12.3
2017-09-27T05:01:12.688Z,12.4
2017-09-27T05:01:32.868Z,12.5
2017-09-27T05:01:53.049Z,12.4
2017-09-27T05:02:13.277Z,12.4
2017-09-27T05:02:33.504Z,12.4
2017-09-27T05:02:53.700Z,12.3
2017-09-27T05:03:13.935Z,12.3
2017-09-27T05:03:34.126Z,12.5
2017-09-27T05:03:54.356Z,12.4
2017-09-27T05:04:14.544Z,12.4
2017-09-27T05:04:34.720Z,12.4
2017-09-27T05:04:54.895Z,12.4
2017-09-27T05:05:15.070Z,12.3
2017-09-27T05:05:35.309Z,12.3
2017-09-27T05:05:55.532Z,12.3
2017-09-27T05:06:15.768Z,12.3
2017-09-27T05:06:35.955Z,12.3
2017-09-27T05:06:56.194Z,12.3
2017-09-27T05:07:16.412Z,12.3
2017-09-27T05:07:36.580Z,12.3
2017-09-27T05:07:56.823Z,12.3
2017-09-27T05:08:17.054Z,12.3
2017-09-27T05:08:37.254Z,12.2
2017-09-27T05:08:57.453Z,12.3
2017-09-27T05:09:17.633Z,12.2
2017-09-27T05:09:37.822Z,12.2
2017-09-27T05:09:58.003Z,12.3
2017-09-27T05:10:18.252Z,12.3
2017-09-27T05:10:38.394Z,12.3
2017-09-27T05:10:58.639Z,12.3
2017-09-27T05:11:18.910Z,12.3
2017-09-27T05:11:39.101Z,12.3
2017-09-27T05:11:59.344Z,12.3
2017-09-27T05:12:19.524Z,12.3
2017-09-27T05:12:39.711Z,12.3
2017-09-27T05:12:59.894Z,12.3
2017-09-27T05:13:20.076Z,12.2
2017-09-27T05:13:40.310Z,12.2
2017-09-27T05:14:00.498Z,12.2
2017-09-27T05:14:20.673Z,12.2
2017-09-27T05:14:40.912Z,12.2
2017-09-27T05:15:01.086Z,12.2
2017-09-27T05:15:21.343Z,12.2
2017-09-27T05:15:41.530Z,12.2
2017-09-27T05:16:01.707Z,12.2
2017-09-27T05:16:21.888Z,12.2
2017-09-27T05:16:42.065Z,12.1
2017-09-27T05:17:02.243Z,12.1
2017-09-27T05:17:22.416Z,12.1
2017-09-27T05:17:42.637Z,12.1
2017-09-27T05:18:02.912Z,12.1
2017-09-27T05:18:23.208Z,12.1
2017-09-27T05:18:43.393Z,12
2017-09-27T05:19:03.672Z,12
2017-09-27T05:19:23.859Z,12.1
2017-09-27T05:19:44.043Z,12
2017-09-27T05:20:04.265Z,12.1
2017-09-27T05:20:24.486Z,12
2017-09-27T05:20:44.765Z,12
2017-09-27T05:21:05.052Z,12.1
2017-09-27T05:21:25.272Z,11.9
2017-09-27T05:21:45.506Z,12.1
2017-09-27T05:22:05.688Z,12.1
2017-09-27T05:22:25.870Z,12
2017-09-27T05:22:46.086Z,12
2017-09-27T05:23:06.271Z,12
2017-09-27T05:23:26.449Z,12.1
2017-09-27T05:23:46.687Z,12.1
2017-09-27T05:24:06.908Z,12
2017-09-27T05:24:27.090Z,12.1
2017-09-27T05:24:47.273Z,12.1
2017-09-27T05:25:07.450Z,12.1
2017-09-27T05:25:27.666Z,12
2017-09-27T05:25:47.847Z,12
2017-09-27T05:26:08.081Z,12.1
2017-09-27T05:26:28.256Z,12.1
2017-09-27T05:26:48.485Z,12.1
2017-09-27T05:27:08.675Z,12
2017-09-27T05:27:28.899Z,12.1
2017-09-27T05:27:49.085Z,12.2
2017-09-27T05:28:09.308Z,12.1
2017-09-27T05:28:29.537Z,12.1
2017-09-27T05:28:49.709Z,12.2
2017-09-27T05:29:09.965Z,12.1
2017-09-27T05:29:30.146Z,12.1
2017-09-27T05:29:50.377Z,12.1
2017-09-27T05:30:10.599Z,12.1
2017-09-27T05:30:30.788Z,12.1
2017-09-27T05:30:50.971Z,12.1
2017-09-27T05:31:11.192Z,12.1
2017-09-27T05:31:31.372Z,12.1
2017-09-27T05:31:51.564Z,12.1
2017-09-27T05:32:11.745Z,12.1
2017-09-27T05:32:31.930Z,12.1
2017-09-27T05:32:52.111Z,12.1
2017-09-27T05:33:12.332Z,12.1
2017-09-27T05:33:32.522Z,12.2
2017-09-27T05:33:52.713Z,12.1
2017-09-27T05:34:12.901Z,12.2
2017-09-27T05:34:33.167Z,12.2
2017-09-27T05:34:53.421Z,12.2
2017-09-27T05:35:13.601Z,12.1
2017-09-27T05:35:33.784Z,12.2
2017-09-27T05:35:53.963Z,12
2017-09-27T05:36:14.143Z,12.2
2017-09-27T05:36:34.307Z,12.1
2017-09-27T05:36:54.496Z,12.2
2017-09-27T05:37:14.670Z,12.2
2017-09-27T05:37:34.960Z,12.2
2017-09-27T05:37:55.193Z,12.2
2017-09-27T05:38:15.402Z,12.2
2017-09-27T05:38:35.590Z,12.2
2017-09-27T05:38:55.770Z,12.2
2017-09-27T05:39:15.999Z,12.2
2017-09-27T05:39:36.179Z,12.2
2017-09-27T05:39:56.373Z,12.2
2017-09-27T05:40:16.700Z,12.2
2017-09-27T05:40:36.883Z,12.2
2017-09-27T05:40:57.144Z,12.2
2017-09-27T05:41:17.300Z,12.2
2017-09-27T05:41:37.549Z,12.2
2017-09-27T05:41:57.721Z,12.2
2017-09-27T05:42:17.895Z,12.2
2017-09-27T05:42:38.066Z,12.2
2017-09-27T05:42:58.289Z,12.2
2017-09-27T05:43:18.518Z,12.2
2017-09-27T05:43:38.739Z,12.2
2017-09-27T05:43:58.921Z,12.2
2017-09-27T05:44:19.153Z,12.2
2017-09-27T05:44:39.352Z,12.2
2017-09-27T05:44:59.548Z,12.2
2017-09-27T05:45:19.745Z,12.2
2017-09-27T05:45:39.973Z,12.2
2017-09-27T05:46:00.152Z,12.2
2017-09-27T05:46:20.381Z,12.2
2017-09-27T05:46:40.562Z,12.2
2017-09-27T05:47:00.809Z,12.2
2017-09-27T05:47:20.993Z,12.2
2017-09-27T05:47:41.220Z,12.2
2017-09-27T05:48:01.391Z,12.2
2017-09-27T05:48:21.622Z,12.2
2017-09-27T05:48:42.712Z,12.2
2017-09-27T05:49:03.052Z,12.2
2017-09-27T05:49:23.247Z,12.2
2017-09-27T05:49:43.440Z,12.2
2017-09-27T05:50:03.628Z,12.2
2017-09-27T05:50:23.817Z,12.2
2017-09-27T05:50:44.005Z,12.2
2017-09-27T05:51:04.188Z,12.2
2017-09-27T05:51:24.366Z,12.2
2017-09-27T05:51:44.542Z,12.2
2017-09-27T05:52:04.733Z,12.2
2017-09-27T05:52:24.955Z,12.2
2017-09-27T05:52:45.142Z,12.2
2017-09-27T05:53:05.358Z,12.2
2017-09-27T05:53:25.536Z,12.2
2017-09-27T05:53:45.810Z,12.2
2017-09-27T05:54:05.956Z,12.2
2017-09-27T05:54:26.170Z,12.3
2017-09-27T05:54:46.409Z,12.3
2017-09-27T05:55:06.555Z,12.4
2017-09-27T05:55:26.732Z,12.3
2017-09-27T05:55:47.063Z,12.3
2017-09-27T05:56:07.317Z,12.3
2017-09-27T05:56:27.496Z,12.3
2017-09-27T05:56:47.680Z,12.3
2017-09-27T05:57:07.901Z,12.2
2017-09-27T05:57:28.098Z,12.2
2017-09-27T05:57:48.287Z,12.3
2017-09-27T05:58:08.467Z,12.3
2017-09-27T05:58:28.653Z,12.2
2017-09-27T05:58:48.831Z,12.3
2017-09-27T05:59:09.008Z,12.4
2017-09-27T05:59:29.197Z,12.4
2017-09-27T05:59:49.425Z,12.3
2017-09-27T06:00:09.644Z,12.4
2017-09-27T06:00:29.815Z,12.4
2017-09-27T06:00:50.006Z,12.4
2017-09-27T06:01:10.185Z,12.4
2017-09-27T06:01:31.110Z,12.3
2017-09-27T06:01:51.314Z,12.4
2017-09-27T06:02:11.534Z,12.4
2017-09-27T06:02:31.709Z,12.3
2017-09-27T06:02:51.931Z,12.5
2017-09-27T06:03:12.178Z,12.3
2017-09-27T06:03:32.417Z,12.4
2017-09-27T06:03:52.594Z,12.4
2017-09-27T06:04:12.865Z,12.4
2017-09-27T06:04:33.047Z,12.4
2017-09-27T06:04:53.228Z,12.4
2017-09-27T06:05:13.463Z,12.4
2017-09-27T06:05:33.655Z,12.4
2017-09-27T06:05:53.838Z,12.4
2017-09-27T06:06:14.011Z,12.5
2017-09-27T06:06:34.205Z,12.4
2017-09-27T06:06:54.478Z,12.5
2017-09-27T06:07:14.673Z,12.5
2017-09-27T06:07:34.876Z,12.5
2017-09-27T06:07:55.070Z,12.5
2017-09-27T06:08:15.356Z,12.5
2017-09-27T06:08:35.540Z,12.5
2017-09-27T06:08:55.725Z,12.4
2017-09-27T06:09:15.932Z,12.4
2017-09-27T06:09:36.189Z,12.5
2017-09-27T06:09:56.457Z,12.5
2017-09-27T06:10:16.727Z,12.5
2017-09-27T06:10:36.900Z,12.5
2017-09-27T06:10:57.086Z,12.5
2017-09-27T06:11:17.312Z,12.5
2017-09-27T06:11:37.491Z,12.5
2017-09-27T06:11:57.691Z,12.5
2017-09-27T06:12:17.880Z,12.5
2017-09-27T06:12:38.063Z,12.5
2017-09-27T06:12:58.272Z,12.5
2017-09-27T06:13:18.449Z,12.5
2017-09-27T06:13:38.642Z,12.6
2017-09-27T06:13:58.824Z,12.6
2017-09-27T06:14:19.054Z,12.5
2017-09-27T06:14:39.218Z,12.5
2017-09-27T06:14:59.409Z,12.7
2017-09-27T06:15:19.591Z,12.6
2017-09-27T06:15:39.778Z,12.6
2017-09-27T06:15:59.952Z,12.6
2017-09-27T06:16:20.143Z,12.6
2017-09-27T06:16:40.322Z,12.5
2017-09-27T06:17:00.659Z,12.6
2017-09-27T06:17:20.830Z,12.6
2017-09-27T06:17:41.070Z,12.6
2017-09-27T06:18:01.313Z,12.7
2017-09-27T06:18:21.557Z,12.7
2017-09-27T06:18:41.777Z,12.6
2017-09-27T06:19:01.971Z,12.6
2017-09-27T06:19:22.201Z,12.7
2017-09-27T06:19:42.389Z,12.7
2017-09-27T06:20:02.584Z,12.7
2017-09-27T06:20:22.804Z,12.7
2017-09-27T06:20:42.980Z,12.7
2017-09-27T06:21:03.203Z,12.7
2017-09-27T06:21:23.383Z,12.7
2017-09-27T06:21:43.590Z,12.8
2017-09-27T06:22:03.776Z,12.7
2017-09-27T06:22:24.724Z,12.8
2017-09-27T06:22:44.915Z,12.8
2017-09-27T06:23:05.116Z,12.8
2017-09-27T06:23:25.304Z,12.9
2017-09-27T06:23:45.547Z,12.9
2017-09-27T06:24:05.733Z,12.8
2017-09-27T06:24:25.977Z,12.9
2017-09-27T06:24:46.163Z,12.9
2017-09-27T06:25:06.393Z,12.9
2017-09-27T06:25:26.621Z,12.8
2017-09-27T06:25:46.804Z,12.9
2017-09-27T06:26:07.040Z,12.9
2017-09-27T06:26:27.272Z,12.9
2017-09-27T06:26:47.517Z,12.9
2017-09-27T06:27:07.751Z,13
2017-09-27T06:27:27.965Z,12.9
2017-09-27T06:27:48.143Z,12.9
2017-09-27T06:28:08.325Z,12.9
2017-09-27T06:28:28.502Z,12.9
2017-09-27T06:28:48.737Z,13
2017-09-27T06:29:08.937Z,12.9
2017-09-27T06:29:29.110Z,13
2017-09-27T06:29:49.287Z,12.9
2017-09-27T06:30:09.507Z,13
2017-09-27T06:30:29.730Z,12.9
2017-09-27T06:30:49.905Z,13
2017-09-27T06:31:10.088Z,13
2017-09-27T06:31:30.347Z,13
2017-09-27T06:31:50.532Z,13
2017-09-27T06:32:10.753Z,13
2017-09-27T06:32:30.978Z,13
2017-09-27T06:32:51.158Z,13
2017-09-27T06:33:11.344Z,13
2017-09-27T06:33:31.602Z,13
2017-09-27T06:33:51.788Z,13
2017-09-27T06:34:12.019Z,13
2017-09-27T06:34:32.196Z,13.1
2017-09-27T06:34:52.445Z,13.1
2017-09-27T06:35:12.724Z,13.1
2017-09-27T06:35:32.968Z,13
2017-09-27T06:35:53.203Z,13.1
2017-09-27T06:36:13.379Z,13
2017-09-27T06:36:33.565Z,13.1
2017-09-27T06:36:53.752Z,13.1
2017-09-27T06:37:13.942Z,13.1
2017-09-27T06:37:34.180Z,13.1
2017-09-27T06:37:54.424Z,13.1
2017-09-27T06:38:14.651Z,13.1
2017-09-27T06:38:34.779Z,13.2
2017-09-27T06:38:54.972Z,13.2
2017-09-27T06:39:15.151Z,13.2
2017-09-27T06:39:35.329Z,13.2
2017-09-27T06:39:55.501Z,13.2
2017-09-27T06:40:15.682Z,13.3
2017-09-27T06:40:35.862Z,13.2
2017-09-27T06:40:56.047Z,13.3
2017-09-27T06:41:16.263Z,13.3
2017-09-27T06:41:36.454Z,13.3
2017-09-27T06:41:56.643Z,13.4
2017-09-27T06:42:16.883Z,13.4
2017-09-27T06:42:37.071Z,13.4
2017-09-27T06:42:57.312Z,13.4
2017-09-27T06:43:17.502Z,13.4
2017-09-27T06:43:38.269Z,13.4
2017-09-27T06:43:58.577Z,13.4
2017-09-27T06:44:18.895Z,13.4
2017-09-27T06:44:39.200Z,13.5
2017-09-27T06:44:59.377Z,13.4
2017-09-27T06:45:20.258Z,13.5
2017-09-27T06:45:40.453Z,13.5
2017-09-27T06:46:00.629Z,13.5
2017-09-27T06:46:20.809Z,13.4
2017-09-27T06:46:41.012Z,13.5
2017-09-27T06:47:02.707Z,13.6
2017-09-27T06:47:23.697Z,13.5
2017-09-27T06:47:43.889Z,13.5
2017-09-27T06:48:04.091Z,13.6
2017-09-27T06:48:24.288Z,13.6
2017-09-27T06:48:44.483Z,13.7
2017-09-27T06:49:04.683Z,13.7
2017-09-27T06:49:24.872Z,13.7
2017-09-27T06:49:45.715Z,13.7
2017-09-27T06:50:05.911Z,13.8
2017-09-27T06:50:26.093Z,13.8
2017-09-27T06:50:46.291Z,13.9
2017-09-27T06:51:06.493Z,13.8
2017-09-27T06:51:26.682Z,13.9
2017-09-27T06:51:46.875Z,13.8
2017-09-27T06:52:07.060Z,13.8
2017-09-27T06:52:27.263Z,13.9
2017-09-27T06:52:47.499Z,13.8
2017-09-27T06:53:07.689Z,13.9
2017-09-27T06:53:27.885Z,13.9
2017-09-27T06:53:48.073Z,13.9
2017-09-27T06:54:08.350Z,13.9
2017-09-27T06:54:28.532Z,13.9
2017-09-27T06:54:48.728Z,14
2017-09-27T06:55:08.894Z,13.9
2017-09-27T06:55:29.084Z,14
2017-09-27T06:55:49.311Z,14
2017-09-27T06:56:10.161Z,14
2017-09-27T06:56:30.345Z,14
2017-09-27T06:56:50.556Z,14
2017-09-27T06:57:10.755Z,14
2017-09-27T06:57:30.942Z,14.1
2017-09-27T06:57:51.174Z,14.1
2017-09-27T06:58:11.354Z,14.1
2017-09-27T06:58:31.633Z,14.1
2017-09-27T06:58:51.813Z,14.1
2017-09-27T06:59:11.997Z,14.2
2017-09-27T06:59:32.278Z,14.2
2017-09-27T06:59:52.464Z,14.2
2017-09-27T07:00:12.651Z,14.3
2017-09-27T07:00:32.883Z,14.2
2017-09-27T07:00:53.089Z,14.2
2017-09-27T07:01:13.248Z,14.3
2017-09-27T07:01:33.448Z,14.3
2017-09-27T07:01:53.726Z,14.3
2017-09-27T07:02:13.959Z,14.4
2017-09-27T07:02:34.135Z,14.4
2017-09-27T07:02:54.327Z,14.3
2017-09-27T07:03:14.513Z,14.4
2017-09-27T07:03:34.701Z,14.3
2017-09-27T07:03:54.928Z,14.4
2017-09-27T07:04:15.115Z,14.4
2017-09-27T07:04:35.389Z,14.4
2017-09-27T07:04:55.589Z,14.4
2017-09-27T07:05:15.775Z,14.5
2017-09-27T07:05:35.986Z,14.4
2017-09-27T07:05:56.179Z,14.5
2017-09-27T07:06:16.354Z,14.5
2017-09-27T07:06:36.562Z,14.5
2017-09-27T07:06:56.854Z,14.6
2017-09-27T07:07:17.140Z,14.6
2017-09-27T07:07:37.359Z,14.7
2017-09-27T07:07:57.541Z,14.6
2017-09-27T07:08:17.783Z,14.6
2017-09-27T07:08:37.964Z,14.6
2017-09-27T07:08:58.138Z,14.7
2017-09-27T07:09:18.316Z,14.6
2017-09-27T07:09:38.551Z,14.7
2017-09-27T07:09:58.738Z,14.7
2017-09-27T07:10:18.917Z,14.7
2017-09-27T07:10:39.340Z,14.7
2017-09-27T07:10:59.767Z,14.8
2017-09-27T07:11:20.011Z,14.8
2017-09-27T07:11:41.876Z,14.8
2017-09-27T07:12:02.071Z,14.8
2017-09-27T07:12:23.226Z,14.8
2017-09-27T07:12:43.402Z,14.8
2017-09-27T07:13:03.580Z,14.8
2017-09-27T07:13:23.805Z,14.8
2017-09-27T07:13:44.025Z,14.8
2017-09-27T07:14:04.271Z,14.8
2017-09-27T07:14:24.464Z,14.8
2017-09-27T07:14:44.659Z,14.8
2017-09-27T07:15:04.862Z,14.9
2017-09-27T07:15:25.250Z,14.9
2017-09-27T07:15:45.423Z,14.9
2017-09-27T07:16:05.605Z,14.9
2017-09-27T07:16:25.791Z,14.8
2017-09-27T07:16:45.980Z,14.9
2017-09-27T07:17:06.179Z,14.9
2017-09-27T07:17:26.355Z,14.9
2017-09-27T07:17:46.549Z,14.8
2017-09-27T07:18:06.728Z,14.9
2017-09-27T07:18:26.935Z,14.9
2017-09-27T07:18:47.150Z,14.9
2017-09-27T07:19:07.483Z,15
2017-09-27T07:19:27.719Z,14.9
2017-09-27T07:19:47.899Z,14.9
2017-09-27T07:20:08.090Z,15
2017-09-27T07:20:28.269Z,15
2017-09-27T07:20:48.480Z,15
2017-09-27T07:21:08.678Z,15
2017-09-27T07:21:28.904Z,15
2017-09-27T07:21:49.146Z,15.1
2017-09-27T07:22:09.891Z,15.1
2017-09-27T07:22:30.165Z,15.1
2017-09-27T07:22:50.342Z,15.1
2017-09-27T07:23:10.528Z,15.1
2017-09-27T07:23:30.887Z,15.2
2017-09-27T07:23:51.050Z,15.1
2017-09-27T07:24:11.275Z,15.1
2017-09-27T07:24:31.524Z,15.1
2017-09-27T07:24:51.715Z,15.2
2017-09-27T07:25:11.896Z,15.2
2017-09-27T07:25:32.198Z,15.2
2017-09-27T07:25:52.448Z,15.1
2017-09-27T07:26:12.644Z,15.1
2017-09-27T07:26:32.844Z,15.1
2017-09-27T07:26:53.075Z,15.1
2017-09-27T07:27:13.269Z,15.1
2017-09-27T07:27:33.471Z,15.1
2017-09-27T07:27:53.651Z,15.1
2017-09-27T07:28:13.827Z,15.1
2017-09-27T07:28:34.018Z,15.2
2017-09-27T07:28:54.284Z,15.2
2017-09-27T07:29:14.464Z,15.2
2017-09-27T07:29:34.706Z,15.2
2017-09-27T07:29:54.898Z,15.3
2017-09-27T07:30:15.844Z,15.2
2017-09-27T07:30:36.033Z,15.3
2017-09-27T07:30:56.255Z,15.3
2017-09-27T07:31:16.437Z,15.3
2017-09-27T07:31:36.625Z,15.2
2017-09-27T07:31:56.816Z,15.3
2017-09-27T07:32:17.047Z,15.3
2017-09-27T07:32:37.264Z,15.3
2017-09-27T07:32:57.441Z,15.3
2017-09-27T07:33:17.639Z,15.3
2017-09-27T07:33:37.870Z,15.4
2017-09-27T07:33:58.148Z,15.3
2017-09-27T07:34:18.384Z,15.3
2017-09-27T07:34:38.634Z,15.3
2017-09-27T07:34:58.815Z,15.3
2017-09-27T07:35:19.736Z,15.3
2017-09-27T07:35:39.925Z,15.3
2017-09-27T07:36:00.167Z,15.5
2017-09-27T07:36:20.394Z,15.5
2017-09-27T07:36:40.578Z,15.5
2017-09-27T07:37:00.757Z,15.4
2017-09-27T07:37:20.959Z,15.5
2017-09-27T07:37:41.140Z,15.5
2017-09-27T07:38:01.320Z,15.5
2017-09-27T07:38:21.505Z,15.5
2017-09-27T07:38:41.732Z,15.5
2017-09-27T07:39:01.927Z,15.6
2017-09-27T07:39:22.163Z,15.6
2017-09-27T07:39:42.920Z,15.6
2017-09-27T07:40:03.107Z,15.6
2017-09-27T07:40:23.334Z,15.6
2017-09-27T07:40:43.700Z,15.6
2017-09-27T07:41:03.934Z,15.6
2017-09-27T07:41:24.118Z,15.6
2017-09-27T07:41:44.308Z,15.6
2017-09-27T07:42:04.505Z,15.6
2017-09-27T07:42:24.846Z,15.6
2017-09-27T07:42:45.034Z,15.7
2017-09-27T07:43:05.287Z,15.6
2017-09-27T07:43:25.469Z,15.7
2017-09-27T07:43:45.721Z,15.7
2017-09-27T07:44:06.866Z,15.7
2017-09-27T07:44:27.050Z,15.7
2017-09-27T07:44:47.230Z,15.7
2017-09-27T07:45:07.425Z,15.7
2017-09-27T07:45:27.612Z,15.7
2017-09-27T07:45:47.798Z,15.7
2017-09-27T07:46:07.985Z,15.8
2017-09-27T07:46:28.171Z,15.8
2017-09-27T07:46:48.423Z,15.9
2017-09-27T07:47:08.652Z,15.8
2017-09-27T07:47:28.836Z,15.9
2017-09-27T07:47:49.021Z,15.9
2017-09-27T07:48:09.226Z,15.9
2017-09-27T07:48:29.498Z,16
2017-09-27T07:48:49.678Z,15.9
2017-09-27T07:49:10.017Z,15.9
2017-09-27T07:49:31.417Z,16
2017-09-27T07:49:51.673Z,16
2017-09-27T07:50:26.486Z,15.9
2017-09-27T07:50:46.732Z,16
2017-09-27T07:51:07.000Z,16
2017-09-27T07:51:27.188Z,16
2017-09-27T07:51:47.489Z,16
2017-09-27T07:52:08.745Z,16
2017-09-27T07:52:28.925Z,16
2017-09-27T07:52:49.267Z,16
2017-09-27T07:53:09.484Z,16.1
2017-09-27T07:53:29.840Z,16
2017-09-27T07:53:50.054Z,16
2017-09-27T07:54:10.237Z,16
2017-09-27T07:54:30.524Z,16.1
2017-09-27T07:54:50.761Z,16.1
2017-09-27T07:55:11.966Z,16.1
2017-09-27T07:55:34.024Z,16.1
2017-09-27T07:55:59.450Z,16.1
2017-09-27T07:56:21.881Z,16.1
2017-09-27T07:56:43.110Z,16.2
2017-09-27T07:57:05.523Z,16.1
2017-09-27T07:57:27.993Z,16.2
2017-09-27T07:57:49.356Z,16.2
2017-09-27T07:58:09.680Z,16.2
2017-09-27T07:58:34.014Z,16.3
2017-09-27T07:58:55.050Z,16.1
2017-09-27T07:59:15.878Z,16.3
2017-09-27T07:59:36.613Z,16.2
2017-09-27T08:00:01.522Z,16.3
2017-09-27T08:00:26.326Z,16.3
2017-09-27T08:00:48.211Z,16.3
2017-09-27T08:01:09.094Z,16.3
2017-09-27T08:01:30.111Z,16.4
2017-09-27T08:01:51.708Z,16.3
2017-09-27T08:02:12.241Z,16.4
2017-09-27T08:02:33.153Z,16.4
2017-09-27T08:02:53.920Z,16.4
2017-09-27T08:03:14.912Z,16.5
2017-09-27T08:03:35.756Z,16.4
2017-09-27T08:03:56.341Z,16.5
2017-09-27T08:04:17.844Z,16.5
2017-09-27T08:04:39.797Z,16.6
2017-09-27T08:05:02.758Z,16.6
2017-09-27T08:05:24.649Z,16.5
2017-09-27T08:05:46.198Z,16.7
2017-09-27T08:06:07.235Z,16.5
2017-09-27T08:06:28.253Z,16.6
2017-09-27T08:06:49.208Z,16.6
2017-09-27T08:07:10.834Z,16.6
2017-09-27T08:07:31.540Z,16.6
2017-09-27T08:07:51.997Z,16.7
2017-09-27T08:08:12.199Z,16.7
2017-09-27T08:08:32.462Z,16.7
2017-09-27T08:08:52.709Z,16.7
2017-09-27T08:09:12.969Z,16.7
2017-09-27T08:09:33.164Z,16.8